Time;durP1;ratioP1;P1;durP2;ratioP2;P2;SDS_P1;SDS_P2;PMS_P1;PMS_P2;Temp;Humidity;BMP_temperature;BMP_pressure;BME280_temperature;BME280_humidity;BME280_pressure;Samples;Min_cycle;Max_cycle;Signal;HPM_P1;HPM_P2
2023/07/09 00:07:32;;;;;;;;;;;19.00;99.90;;;;;;21060066;28;19958;-75
2023/07/09 00:17:33;;;;;;;;;;;19.10;99.90;;;;;;20980664;28;19920;-74
2023/07/09 00:27:34;;;;;;;;;;;19.00;99.90;;;;;;20988815;28;20268;-75
2023/07/09 00:37:36;;;;;;;;;;;19.10;99.90;;;;;;21001654;28;19928;-75
2023/07/09 00:47:41;;;;;;;;;;;18.50;99.90;;;;;;20974802;28;19913;-76
2023/07/09 00:57:44;;;;;;;;;;;18.40;99.90;;;;;;21008379;28;19923;-74
2023/07/09 01:07:45;;;;;;;;;;;18.50;99.90;;;;;;20909941;28;20043;-73
2023/07/09 01:17:47;;;;;;;;;;;18.50;99.90;;;;;;20915293;28;20058;-74
2023/07/09 01:27:48;;;;;;;;;;;18.40;99.90;;;;;;20915761;28;19917;-73
2023/07/09 01:37:49;;;;;;;;;;;18.40;99.90;;;;;;20917357;28;20051;-74
2023/07/09 01:47:50;;;;;;;;;;;18.40;99.90;;;;;;20944980;28;19917;-74
2023/07/09 01:57:52;;;;;;;;;;;18.40;99.90;;;;;;20919528;28;19968;-74
2023/07/09 02:07:52;;;;;;;;;;;18.30;99.90;;;;;;20996468;28;19966;-73
2023/07/09 02:17:58;;;;;;;;;;;17.90;99.90;;;;;;20988575;28;19920;-74
2023/07/09 02:27:59;;;;;;;;;;;17.50;99.90;;;;;;21034414;28;20002;-74
2023/07/09 02:38:00;;;;;;;;;;;17.80;99.90;;;;;;20993921;28;20003;-74
2023/07/09 02:48:00;;;;;;;;;;;17.90;99.90;;;;;;20994093;28;19913;-74
2023/07/09 02:58:03;;;;;;;;;;;17.80;99.90;;;;;;20972927;28;19924;-74
2023/07/09 03:08:04;;;;;;;;;;;17.80;99.90;;;;;;20918277;28;19917;-74
2023/07/09 03:18:05;;;;;;;;;;;17.70;99.90;;;;;;20917189;28;19924;-74
2023/07/09 03:28:05;;;;;;;;;;;17.50;99.90;;;;;;20906452;28;20348;-74
2023/07/09 03:38:07;;;;;;;;;;;17.50;99.90;;;;;;20896183;28;19939;-74
2023/07/09 03:48:08;;;;;;;;;;;17.70;99.90;;;;;;20891621;28;19913;-74
2023/07/09 03:58:09;;;;;;;;;;;17.70;99.90;;;;;;20960423;28;19955;-74
2023/07/09 04:08:09;;;;;;;;;;;17.60;99.90;;;;;;21086693;28;19912;-74
2023/07/09 04:18:10;;;;;;;;;;;17.50;99.90;;;;;;21070404;28;20007;-74
2023/07/09 04:28:10;;;;;;;;;;;17.50;99.90;;;;;;21038676;28;20402;-74
2023/07/09 04:38:11;;;;;;;;;;;17.40;99.90;;;;;;20990073;28;20435;-74
2023/07/09 04:48:12;;;;;;;;;;;17.50;99.90;;;;;;20997110;28;19912;-74
2023/07/09 04:58:12;;;;;;;;;;;17.80;99.90;;;;;;21001940;28;19951;-74
2023/07/09 05:08:14;;;;;;;;;;;17.90;99.90;;;;;;21000428;28;20003;-74
2023/07/09 05:18:15;;;;;;;;;;;18.20;99.90;;;;;;20991896;28;19913;-74
2023/07/09 05:28:16;;;;;;;;;;;18.30;99.90;;;;;;20981850;28;19912;-74
2023/07/09 05:38:16;;;;;;;;;;;18.60;99.90;;;;;;20991564;28;19920;-73
2023/07/09 05:48:17;;;;;;;;;;;18.60;99.90;;;;;;20969556;28;20011;-74
2023/07/09 05:58:17;;;;;;;;;;;19.00;99.90;;;;;;20997841;22;19947;-75
2023/07/09 06:08:19;;;;;;;;;;;19.50;99.90;;;;;;20962295;28;19912;-75
2023/07/09 06:18:21;;;;;;;;;;;19.80;99.90;;;;;;20932585;28;20014;-75
2023/07/09 06:28:23;;;;;;;;;;;20.20;99.90;;;;;;20900638;28;19912;-76
2023/07/09 06:38:24;;;;;;;;;;;20.80;99.90;;;;;;20894159;28;20482;-76
2023/07/09 06:48:25;;;;;;;;;;;21.30;99.90;;;;;;20910857;28;19951;-77
2023/07/09 06:58:27;;;;;;;;;;;22.10;99.90;;;;;;20911829;28;19917;-77
2023/07/09 07:08:28;;;;;;;;;;;22.20;99.90;;;;;;20897800;28;19912;-77
2023/07/09 07:18:29;;;;;;;;;;;22.60;99.90;;;;;;20893934;28;19917;-78
2023/07/09 07:28:30;;;;;;;;;;;23.20;99.90;;;;;;20917253;28;19912;-78
2023/07/09 07:38:31;;;;;;;;;;;24.10;99.90;;;;;;20900449;28;19956;-77
2023/07/09 07:48:31;;;;;;;;;;;24.70;99.90;;;;;;20931280;28;19932;-78
2023/07/09 07:58:32;;;;;;;;;;;25.50;99.90;;;;;;20919908;28;20424;-78
2023/07/09 08:08:33;;;;;;;;;;;25.30;99.90;;;;;;20921014;28;19967;-78
2023/07/09 08:18:34;;;;;;;;;;;25.70;99.90;;;;;;20898457;28;19919;-78
2023/07/09 08:28:35;;;;;;;;;;;26.60;99.90;;;;;;20920860;28;19913;-77
2023/07/09 08:38:35;;;;;;;;;;;27.70;99.90;;;;;;20924173;28;19970;-78
2023/07/09 08:48:39;;;;;;;;;;;28.10;99.90;;;;;;20905852;28;19913;-78
2023/07/09 08:58:40;;;;;;;;;;;28.80;99.90;;;;;;20917163;28;19920;-76
2023/07/09 09:08:50;;;;;;;;;;;28.80;99.90;;;;;;20920282;28;19928;-77
2023/07/09 09:18:53;;;;;;;;;;;29.90;99.90;;;;;;20917963;28;20008;-76
2023/07/09 09:28:54;;;;;;;;;;;29.50;99.90;;;;;;20910225;28;19956;-76
2023/07/09 09:38:55;;;;;;;;;;;30.10;99.90;;;;;;20917409;28;19919;-75
2023/07/09 09:48:59;;;;;;;;;;;30.60;99.90;;;;;;20915372;28;19967;-75
2023/07/09 09:59:00;;;;;;;;;;;31.40;99.90;;;;;;20896435;28;20559;-76
2023/07/09 10:09:19;;;;;;;;;;;31.00;99.90;;;;;;20907559;28;20371;-76
2023/07/09 10:19:19;;;;;;;;;;;32.50;99.90;;;;;;20904072;28;19952;-76
2023/07/09 10:29:31;;;;;;;;;;;32.80;99.90;;;;;;20905959;28;19964;-76
2023/07/09 10:39:33;;;;;;;;;;;32.50;99.90;;;;;;20911543;28;19919;-76
2023/07/09 10:49:36;;;;;;;;;;;33.20;99.90;;;;;;20910910;28;19967;-76
2023/07/09 10:59:39;;;;;;;;;;;33.70;99.90;;;;;;20908174;28;20455;-76
2023/07/09 11:09:42;;;;;;;;;;;33.50;99.90;;;;;;20905061;28;20314;-77
2023/07/09 11:19:44;;;;;;;;;;;32.70;99.90;;;;;;20904830;28;19913;-76
2023/07/09 11:29:55;;;;;;;;;;;32.60;98.80;;;;;;20907873;28;20356;-76
2023/07/09 11:40:03;;;;;;;;;;;34.40;97.90;;;;;;20896855;28;19913;-77
2023/07/09 11:50:06;;;;;;;;;;;33.40;99.90;;;;;;20903982;28;19924;-77
2023/07/09 12:00:08;;;;;;;;;;;34.40;98.40;;;;;;20939959;22;20298;-72
2023/07/09 12:10:19;;;;;;;;;;;34.40;94.20;;;;;;20930722;28;19917;-72
2023/07/09 12:20:20;;;;;;;;;;;35.40;95.30;;;;;;20897481;28;19920;-72
2023/07/09 12:30:21;;;;;;;;;;;34.40;94.50;;;;;;20862770;28;19924;-72
2023/07/09 12:40:23;;;;;;;;;;;35.50;93.20;;;;;;20904076;28;20355;-72
2023/07/09 12:50:31;;;;;;;;;;;35.20;92.30;;;;;;20922459;28;19917;-72
2023/07/09 13:00:32;;;;;;;;;;;35.80;93.80;;;;;;20860880;28;19921;-72
2023/07/09 13:10:38;;;;;;;;;;;34.90;91.80;;;;;;20880384;28;20024;-73
2023/07/09 13:20:42;;;;;;;;;;;35.50;92.00;;;;;;20853195;28;19920;-73
2023/07/09 13:30:42;;;;;;;;;;;35.80;93.00;;;;;;20883175;28;20396;-73
2023/07/09 13:40:44;;;;;;;;;;;36.30;91.20;;;;;;20866110;28;20003;-72
2023/07/09 13:50:45;;;;;;;;;;;36.40;92.00;;;;;;20892777;28;19917;-72
2023/07/09 14:00:47;;;;;;;;;;;35.70;90.30;;;;;;20873164;28;19926;-72
2023/07/09 14:10:49;;;;;;;;;;;35.20;86.50;;;;;;20878398;28;20293;-72
2023/07/09 14:20:50;;;;;;;;;;;35.60;90.10;;;;;;20890949;28;20008;-72
2023/07/09 14:30:51;;;;;;;;;;;36.70;82.20;;;;;;20840053;28;19953;-72
2023/07/09 14:40:55;;;;;;;;;;;35.80;84.00;;;;;;20882871;28;19959;-72
2023/07/09 14:50:56;;;;;;;;;;;36.30;84.30;;;;;;20876538;28;20394;-72
2023/07/09 15:00:59;;;;;;;;;;;35.60;80.70;;;;;;20893823;28;20306;-73
2023/07/09 15:10:59;;;;;;;;;;;36.40;81.10;;;;;;20880553;28;19948;-72
2023/07/09 15:21:01;;;;;;;;;;;35.90;83.70;;;;;;20888290;28;19917;-73
2023/07/09 15:31:02;;;;;;;;;;;36.40;78.20;;;;;;20911528;28;19952;-72
2023/07/09 15:41:02;;;;;;;;;;;35.90;80.40;;;;;;20871064;28;19920;-72
2023/07/09 15:51:04;;;;;;;;;;;35.40;78.50;;;;;;20906257;28;20386;-73
2023/07/09 16:01:07;;;;;;;;;;;35.50;79.50;;;;;;20894440;28;19917;-73
2023/07/09 16:11:18;;;;;;;;;;;35.00;81.20;;;;;;20921400;28;19939;-72
2023/07/09 16:21:21;;;;;;;;;;;35.00;79.20;;;;;;20899703;28;20027;-73
2023/07/09 16:31:22;;;;;;;;;;;35.20;80.70;;;;;;20890590;28;20306;-72
2023/07/09 16:41:22;;;;;;;;;;;35.00;75.10;;;;;;20892298;28;19921;-73
2023/07/09 16:51:23;;;;;;;;;;;34.60;84.50;;;;;;20889674;28;19924;-73
2023/07/09 17:01:24;;;;;;;;;;;34.30;82.10;;;;;;20865133;28;19917;-73
2023/07/09 17:11:25;;;;;;;;;;;34.40;78.50;;;;;;20881842;28;19918;-73
2023/07/09 17:21:25;;;;;;;;;;;33.30;97.90;;;;;;20924145;28;20057;-73
2023/07/09 17:31:26;;;;;;;;;;;32.80;99.90;;;;;;20937275;28;19952;-73
2023/07/09 17:41:26;;;;;;;;;;;32.30;99.90;;;;;;20898757;28;19924;-74
2023/07/09 17:51:27;;;;;;;;;;;32.10;99.90;;;;;;20883407;28;20452;-73
2023/07/09 18:01:30;;;;;;;;;;;31.80;99.90;;;;;;20993496;22;19952;-74
2023/07/09 18:11:36;;;;;;;;;;;32.00;99.90;;;;;;21048606;28;20384;-76
2023/07/09 18:21:36;;;;;;;;;;;32.00;99.90;;;;;;21079217;28;20014;-77
2023/07/09 18:31:37;;;;;;;;;;;31.30;99.90;;;;;;21079422;28;19951;-75
2023/07/09 18:41:38;;;;;;;;;;;30.70;99.90;;;;;;21079039;28;19959;-75
2023/07/09 18:51:39;;;;;;;;;;;29.20;99.90;;;;;;21059316;28;19995;-75
2023/07/09 19:01:40;;;;;;;;;;;27.70;99.90;;;;;;21079502;28;19923;-75
2023/07/09 19:11:41;;;;;;;;;;;26.90;99.90;;;;;;21078660;28;19912;-75
2023/07/09 19:21:42;;;;;;;;;;;26.40;99.90;;;;;;21030384;28;19916;-74
2023/07/09 19:31:44;;;;;;;;;;;25.90;99.90;;;;;;20991683;28;20409;-75
2023/07/09 19:41:44;;;;;;;;;;;25.20;99.90;;;;;;21036813;28;19923;-75
2023/07/09 19:51:45;;;;;;;;;;;24.90;99.90;;;;;;20992966;28;19912;-75
2023/07/09 20:01:49;;;;;;;;;;;24.50;99.90;;;;;;20992124;28;19916;-75
2023/07/09 20:11:50;;;;;;;;;;;24.30;99.90;;;;;;21055047;28;19966;-75
2023/07/09 20:21:51;;;;;;;;;;;23.70;99.90;;;;;;21073847;28;19916;-75
2023/07/09 20:31:52;;;;;;;;;;;23.70;99.90;;;;;;20994881;28;19916;-74
2023/07/09 20:41:52;;;;;;;;;;;23.20;99.90;;;;;;20955597;28;20290;-74
2023/07/09 20:51:53;;;;;;;;;;;23.10;99.90;;;;;;20952154;28;19913;-74
2023/07/09 21:01:54;;;;;;;;;;;22.60;99.90;;;;;;20952515;28;19917;-74
2023/07/09 21:11:55;;;;;;;;;;;22.30;99.90;;;;;;20961645;28;19948;-75
2023/07/09 21:21:55;;;;;;;;;;;22.30;99.90;;;;;;20957209;28;19922;-74
2023/07/09 21:31:57;;;;;;;;;;;22.30;99.90;;;;;;20956764;28;20327;-75
2023/07/09 21:41:58;;;;;;;;;;;22.30;99.90;;;;;;20950927;28;19966;-74
2023/07/09 21:51:59;;;;;;;;;;;22.00;99.90;;;;;;20962868;28;19912;-74
2023/07/09 22:02:01;;;;;;;;;;;21.90;99.90;;;;;;20958609;28;19923;-74
2023/07/09 22:12:02;;;;;;;;;;;21.70;99.90;;;;;;20951197;28;19920;-74
2023/07/09 22:22:08;;;;;;;;;;;21.60;99.90;;;;;;20953042;28;19921;-74
2023/07/09 22:32:21;;;;;;;;;;;21.40;99.90;;;;;;20949271;28;19917;-74
2023/07/09 22:42:22;;;;;;;;;;;21.10;99.90;;;;;;20944321;28;19917;-75
2023/07/09 22:52:23;;;;;;;;;;;21.00;99.90;;;;;;20923138;28;19914;-74
2023/07/09 23:02:25;;;;;;;;;;;20.70;99.90;;;;;;20930078;28;19916;-74
2023/07/09 23:12:26;;;;;;;;;;;20.70;99.90;;;;;;20948154;28;19920;-75
2023/07/09 23:22:26;;;;;;;;;;;20.60;99.90;;;;;;20952611;28;19917;-75
2023/07/09 23:32:27;;;;;;;;;;;20.30;99.90;;;;;;20968659;28;19952;-76
2023/07/09 23:42:28;;;;;;;;;;;20.10;99.90;;;;;;20985134;28;19935;-76
2023/07/09 23:52:29;;;;;;;;;;;20.10;99.90;;;;;;20985882;28;19951;-75
